MiSS Donna — WDG2382 — position and weather

sailwx.info

Track history (hours):
 
Tides and Currents Weather Stations Pressure Air Temp Water Temp Dewpoint Dewpoint Depression Visibility Wind Speed Wind Dir Waves Ship Positions

MiSS Donna

More information available from US FCC via Universal Licensing System and Coast Guard Vessel Documentation Center.

Last reported at 2014-Aug-27 12:16 UTC. Time now 2014-Aug-29 18:24 UTC.
Position N 39°13' W 076°35'.

Length 21 m; draft 2.7 m.

Type: Towing. MMSI: 367515090.

Date/timePositionNaut miles runAvg speedWind from/ knotsBaromVisibWave heightAir tempDewpointWater temp
2014-Aug-27 12:16N 39°13' W 076°35'0 0.0
2014-Aug-27 04:27N 39°13' W 076°35'0 0.0
2014-Aug-25 11:22N 39°13' W 076°35'0 0.0
2014-Aug-25 09:28N 39°13' W 076°35'  
2014-Aug-22 23:10N 39°13' W 076°35'0 0.0
2014-Aug-22 20:16N 39°13' W 076°35'0 0.0
2014-Aug-22 19:28N 39°13' W 076°35'0 0.0
2014-Aug-22 18:25N 39°13' W 076°35'0 0.0
2014-Aug-22 17:30N 39°13' W 076°35'0 0.0
2014-Aug-22 16:15N 39°13' W 076°35'0 0.0
2014-Aug-22 13:33N 39°13' W 076°35'0 0.0
2014-Aug-22 12:15N 39°13' W 076°35'0 0.0
2014-Aug-22 11:27N 39°13' W 076°35'0 0.0
2014-Aug-22 10:30N 39°13' W 076°35'0 0.0
2014-Aug-22 09:30N 39°13' W 076°35'0 0.0
2014-Aug-22 08:33N 39°13' W 076°35'0 0.0
2014-Aug-22 07:33N 39°13' W 076°35'0 0.0
2014-Aug-22 06:30N 39°13' W 076°35'0 0.0
2014-Aug-22 05:27N 39°13' W 076°35'0 0.0
2014-Aug-22 04:21N 39°13' W 076°35'0 0.0
2014-Aug-22 03:27N 39°13' W 076°35'0 0.0
2014-Aug-21 21:21N 39°13' W 076°35'0 0.0
2014-Aug-21 20:30N 39°13' W 076°35'0 0.0
2014-Aug-21 06:27N 39°13' W 076°35'0 0.0
2014-Aug-21 05:24N 39°13' W 076°35'0 0.0
2014-Aug-21 03:09N 39°13' W 076°35'0 0.0
2014-Aug-20 13:09N 39°13' W 076°35'0 0.0
2014-Aug-20 12:33N 39°13' W 076°35'0 0.0
2014-Aug-20 11:27N 39°13' W 076°35'0 0.0
2014-Aug-20 10:21N 39°13' W 076°35'0 0.0
2014-Aug-20 09:33N 39°13' W 076°35'0 0.0
2014-Aug-20 08:33N 39°13' W 076°35'0 0.0
2014-Aug-20 07:21N 39°13' W 076°35'0 0.0
2014-Aug-20 06:33N 39°13' W 076°35'0 0.0
2014-Aug-19 06:30N 39°13' W 076°35'0 0.0
2014-Aug-19 05:03N 39°13' W 076°35'0 0.0
2014-Aug-19 04:20N 39°13' W 076°35'2 2.2
2014-Aug-19 03:33N 39°13' W 076°33'7 6.0
2014-Aug-19 02:21N 39°09' W 076°25'23 1.2
2014-Aug-18 07:21N 38°46' W 076°27'4 5.3
2014-Aug-18 06:30N 38°51' W 076°26'5 5.1
2014-Aug-18 05:33N 38°56' W 076°25'5 4.8
2014-Aug-18 04:31N 39°00' W 076°23'4 4.6
2014-Aug-18 03:33N 39°05' W 076°24'5 4.9
2014-Aug-18 02:33N 39°09' W 076°25'5 5.1
2014-Aug-18 01:33N 39°12' W 076°31'3 3.2
2014-Aug-18 00:28N 39°13' W 076°35'  
Track history (hours):
 
Tides and Currents Weather Stations Pressure Air Temp Water Temp Dewpoint Dewpoint Depression Visibility Wind Speed Wind Dir Waves Ship Positions

MiSS Donna

More information available from US FCC via Universal Licensing System and Coast Guard Vessel Documentation Center.

Last reported at 2014-Aug-27 12:16 UTC. Time now 2014-Aug-29 18:24 UTC.
Position N 39°13' W 076°35'.

Length 21 m; draft 2.7 m.

Type: Towing. MMSI: 367515090.

Date/timePositionNaut miles runAvg speedWind from/ knotsBaromVisibWave heightAir tempDewpointWater temp
2014-Aug-27 12:16N 39°13' W 076°35'0 0.0
2014-Aug-27 04:27N 39°13' W 076°35'0 0.0
2014-Aug-25 11:22N 39°13' W 076°35'0 0.0
2014-Aug-25 09:28N 39°13' W 076°35'  
2014-Aug-22 23:10N 39°13' W 076°35'0 0.0
2014-Aug-22 20:16N 39°13' W 076°35'0 0.0
2014-Aug-22 19:28N 39°13' W 076°35'0 0.0
2014-Aug-22 18:25N 39°13' W 076°35'0 0.0
2014-Aug-22 17:30N 39°13' W 076°35'0 0.0
2014-Aug-22 16:15N 39°13' W 076°35'0 0.0
2014-Aug-22 13:33N 39°13' W 076°35'0 0.0
2014-Aug-22 12:15N 39°13' W 076°35'0 0.0
2014-Aug-22 11:27N 39°13' W 076°35'0 0.0
2014-Aug-22 10:30N 39°13' W 076°35'0 0.0
2014-Aug-22 09:30N 39°13' W 076°35'0 0.0
2014-Aug-22 08:33N 39°13' W 076°35'0 0.0
2014-Aug-22 07:33N 39°13' W 076°35'0 0.0
2014-Aug-22 06:30N 39°13' W 076°35'0 0.0
2014-Aug-22 05:27N 39°13' W 076°35'0 0.0
2014-Aug-22 04:21N 39°13' W 076°35'0 0.0
2014-Aug-22 03:27N 39°13' W 076°35'0 0.0
2014-Aug-21 21:21N 39°13' W 076°35'0 0.0
2014-Aug-21 20:30N 39°13' W 076°35'0 0.0
2014-Aug-21 06:27N 39°13' W 076°35'0 0.0
2014-Aug-21 05:24N 39°13' W 076°35'0 0.0
2014-Aug-21 03:09N 39°13' W 076°35'0 0.0
2014-Aug-20 13:09N 39°13' W 076°35'0 0.0
2014-Aug-20 12:33N 39°13' W 076°35'0 0.0
2014-Aug-20 11:27N 39°13' W 076°35'0 0.0
2014-Aug-20 10:21N 39°13' W 076°35'0 0.0
2014-Aug-20 09:33N 39°13' W 076°35'0 0.0
2014-Aug-20 08:33N 39°13' W 076°35'0 0.0
2014-Aug-20 07:21N 39°13' W 076°35'0 0.0
2014-Aug-20 06:33N 39°13' W 076°35'0 0.0
2014-Aug-19 06:30N 39°13' W 076°35'0 0.0
2014-Aug-19 05:03N 39°13' W 076°35'0 0.0
2014-Aug-19 04:20N 39°13' W 076°35'2 2.2
2014-Aug-19 03:33N 39°13' W 076°33'7 6.0
2014-Aug-19 02:21N 39°09' W 076°25'23 1.2
2014-Aug-18 07:21N 38°46' W 076°27'4 5.3
2014-Aug-18 06:30N 38°51' W 076°26'5 5.1
2014-Aug-18 05:33N 38°56' W 076°25'5 4.8
2014-Aug-18 04:31N 39°00' W 076°23'4 4.6
2014-Aug-18 03:33N 39°05' W 076°24'5 4.9
2014-Aug-18 02:33N 39°09' W 076°25'5 5.1
2014-Aug-18 01:33N 39°12' W 076°31'3 3.2
2014-Aug-18 00:28N 39°13' W 076°35'  

Dump ship's entire track history